createdAt,value
2019-05-13T00:00:15.360Z,2.17
2019-05-13T00:02:44.016Z,2.03
2019-05-13T00:05:14.729Z,2.07
2019-05-13T00:07:43.794Z,2.00
2019-05-13T00:10:14.608Z,2.07
2019-05-13T00:12:44.590Z,1.97
2019-05-13T00:15:13.985Z,2.20
2019-05-13T00:17:44.535Z,2.17
2019-05-13T00:20:14.150Z,1.83
2019-05-13T00:22:44.739Z,1.80
2019-05-13T00:25:14.491Z,1.70
2019-05-13T00:27:44.470Z,1.80
2019-05-13T00:30:14.527Z,2.10
2019-05-13T00:32:44.631Z,1.90
2019-05-13T00:35:14.282Z,2.10
2019-05-13T00:37:44.311Z,2.10
2019-05-13T00:40:14.397Z,1.87
2019-05-13T00:42:44.197Z,1.90
2019-05-13T00:45:14.630Z,2.50
2019-05-13T00:47:43.654Z,2.00
2019-05-13T00:50:14.313Z,1.43
2019-05-13T00:52:44.558Z,2.03
2019-05-13T00:55:14.486Z,1.90
2019-05-13T00:57:43.720Z,2.10
2019-05-13T01:00:14.103Z,2.00
2019-05-13T01:02:44.600Z,1.83
2019-05-13T01:05:14.711Z,2.00
2019-05-13T01:07:44.324Z,2.07
2019-05-13T01:10:13.313Z,2.30
2019-05-13T01:12:43.827Z,2.23
2019-05-13T01:15:13.555Z,1.83
2019-05-13T01:17:44.493Z,2.40
2019-05-13T01:20:14.430Z,2.07
2019-05-13T01:22:44.131Z,2.10
2019-05-13T01:25:14.493Z,1.90
2019-05-13T01:27:44.195Z,2.03
2019-05-13T01:30:13.619Z,2.20
2019-05-13T01:32:44.552Z,2.10
2019-05-13T01:35:14.814Z,2.43
2019-05-13T01:37:45.898Z,2.60
2019-05-13T01:40:13.689Z,2.13
2019-05-13T01:42:44.184Z,2.13
2019-05-13T01:45:13.652Z,2.30
2019-05-13T01:47:44.174Z,1.87
2019-05-13T01:50:14.312Z,1.80
2019-05-13T01:52:44.518Z,1.97
2019-05-13T01:55:14.487Z,2.10
2019-05-13T01:57:44.366Z,1.97
2019-05-13T02:00:14.067Z,2.20
2019-05-13T02:02:44.568Z,2.20
2019-05-13T02:05:13.997Z,2.17
2019-05-13T02:07:54.458Z,1.73
2019-05-13T02:10:14.558Z,1.97
2019-05-13T02:12:44.661Z,2.20
2019-05-13T02:15:14.502Z,1.87
2019-05-13T02:17:44.644Z,2.10
2019-05-13T02:20:14.791Z,2.20
2019-05-13T02:22:44.443Z,2.00
2019-05-13T02:25:13.770Z,2.70
2019-05-13T02:27:44.002Z,2.10
2019-05-13T02:30:16.291Z,1.83
2019-05-13T02:32:43.123Z,1.93
2019-05-13T02:35:13.847Z,2.00
2019-05-13T02:37:43.566Z,2.10
2019-05-13T02:40:13.554Z,2.37
2019-05-13T02:42:43.643Z,2.20
2019-05-13T02:45:13.099Z,2.27
2019-05-13T02:47:44.195Z,2.10
2019-05-13T02:50:12.800Z,2.10
2019-05-13T02:52:44.460Z,2.27
2019-05-13T02:55:12.514Z,2.17
2019-05-13T02:57:43.641Z,1.93
2019-05-13T03:00:12.974Z,1.87
2019-05-13T03:02:44.001Z,2.40
2019-05-13T03:05:13.585Z,2.10
2019-05-13T03:07:42.837Z,2.20
2019-05-13T03:10:13.534Z,2.10
2019-05-13T03:12:42.412Z,2.13
2019-05-13T03:15:13.473Z,1.90
2019-05-13T03:17:52.891Z,1.80
2019-05-13T03:20:22.999Z,2.27
2019-05-13T03:22:52.644Z,2.47
2019-05-13T03:25:22.754Z,2.37
2019-05-13T03:27:54.097Z,2.33
2019-05-13T03:30:25.075Z,2.33
2019-05-13T03:32:59.758Z,2.07
2019-05-13T03:35:26.798Z,2.20
2019-05-13T03:37:52.804Z,2.83
2019-05-13T03:40:23.059Z,2.20
2019-05-13T03:42:53.488Z,1.80
2019-05-13T03:45:23.811Z,2.50
2019-05-13T03:47:53.025Z,2.17
2019-05-13T03:50:22.708Z,2.07
2019-05-13T03:52:52.577Z,2.37
2019-05-13T03:55:22.940Z,2.53
2019-05-13T03:57:53.311Z,2.20
2019-05-13T04:00:23.603Z,2.47
2019-05-13T04:02:52.225Z,2.53
2019-05-13T04:05:23.023Z,2.40
2019-05-13T04:07:52.255Z,2.53
2019-05-13T04:10:22.924Z,2.27
2019-05-13T04:12:52.715Z,2.57
2019-05-13T04:15:23.462Z,2.20
2019-05-13T04:17:53.069Z,2.27
2019-05-13T04:20:23.000Z,2.40
2019-05-13T04:22:53.005Z,2.43
2019-05-13T04:25:23.237Z,2.23
2019-05-13T04:27:52.895Z,2.30
2019-05-13T04:30:22.330Z,2.07
2019-05-13T04:32:53.496Z,2.10
2019-05-13T04:35:23.486Z,2.40
2019-05-13T04:37:52.673Z,2.30
2019-05-13T04:40:23.235Z,2.60
2019-05-13T04:42:53.358Z,2.70
2019-05-13T04:45:23.943Z,2.77
2019-05-13T04:47:52.915Z,2.77
2019-05-13T04:50:22.470Z,2.83
2019-05-13T04:52:52.683Z,3.00
2019-05-13T04:55:22.914Z,2.70
2019-05-13T04:57:53.299Z,2.67
2019-05-13T05:00:32.312Z,2.87
2019-05-13T05:03:31.890Z,3.20
2019-05-13T05:06:32.858Z,2.43
2019-05-13T05:09:22.765Z,2.70
2019-05-13T05:12:06.105Z,2.63
2019-05-13T05:14:56.734Z,2.73
2019-05-13T05:18:03.133Z,3.20
2019-05-13T05:20:41.651Z,2.67
2019-05-13T05:23:42.288Z,2.93
2019-05-13T05:26:35.431Z,3.03
2019-05-13T05:29:12.732Z,2.77
2019-05-13T05:31:44.210Z,2.90
2019-05-13T05:34:32.415Z,4.07
2019-05-13T05:37:03.837Z,2.93
2019-05-13T05:39:32.185Z,2.80
2019-05-13T05:42:02.148Z,2.80
2019-05-13T05:44:32.481Z,2.73
2019-05-13T05:47:02.968Z,3.10
2019-05-13T05:49:32.163Z,3.10
2019-05-13T05:52:03.921Z,3.53
2019-05-13T05:54:34.835Z,3.07
2019-05-13T05:57:04.354Z,2.43
2019-05-13T05:59:32.918Z,3.23
2019-05-13T06:02:02.131Z,3.17
2019-05-13T06:04:32.558Z,2.80
2019-05-13T06:07:03.179Z,2.70
2019-05-13T06:09:32.392Z,2.33
2019-05-13T06:12:01.729Z,2.70
2019-05-13T06:14:32.525Z,2.97
2019-05-13T06:17:02.628Z,3.00
2019-05-13T06:19:31.807Z,2.67
2019-05-13T06:22:02.241Z,2.60
2019-05-13T06:24:31.331Z,2.87
2019-05-13T06:27:01.568Z,2.90
2019-05-13T06:29:31.666Z,2.83
2019-05-13T06:32:15.233Z,3.00
2019-05-13T06:34:32.901Z,3.10
2019-05-13T06:37:01.802Z,3.10
2019-05-13T06:39:31.774Z,3.10
2019-05-13T06:42:02.436Z,3.00
2019-05-13T06:44:31.597Z,2.97
2019-05-13T06:47:02.426Z,3.70
2019-05-13T06:49:32.219Z,3.30
2019-05-13T06:52:01.729Z,2.97
2019-05-13T06:54:32.894Z,2.43
2019-05-13T06:57:04.653Z,3.47
2019-05-13T06:59:31.626Z,3.00
2019-05-13T07:02:02.075Z,2.87
2019-05-13T07:04:32.516Z,3.33
2019-05-13T07:07:09.965Z,2.67
2019-05-13T07:09:32.377Z,3.30
2019-05-13T07:12:03.091Z,2.87
2019-05-13T07:14:32.452Z,2.70
2019-05-13T07:17:01.910Z,3.10
2019-05-13T07:19:32.400Z,2.63
2019-05-13T07:22:02.687Z,2.50
2019-05-13T07:24:32.284Z,2.40
2019-05-13T07:27:01.839Z,2.37
2019-05-13T07:29:32.552Z,2.30
2019-05-13T07:32:01.674Z,2.47
2019-05-13T07:34:33.449Z,2.40
2019-05-13T07:37:02.075Z,2.50
2019-05-13T07:39:32.729Z,3.30
2019-05-13T07:42:05.010Z,2.40
2019-05-13T07:44:32.447Z,2.30
2019-05-13T07:47:03.424Z,2.27
2019-05-13T07:49:31.638Z,2.47
2019-05-13T07:52:01.632Z,3.10
2019-05-13T07:54:32.571Z,2.60
2019-05-13T07:57:02.060Z,2.23
2019-05-13T07:59:31.900Z,2.20
2019-05-13T08:02:02.169Z,1.97
2019-05-13T08:04:33.070Z,2.23
2019-05-13T08:07:02.019Z,2.50
2019-05-13T08:09:31.863Z,2.70
2019-05-13T08:12:09.839Z,2.60
2019-05-13T08:14:32.533Z,2.27
2019-05-13T08:17:02.704Z,2.30
2019-05-13T08:19:32.618Z,2.43
2019-05-13T08:22:02.118Z,2.13
2019-05-13T08:24:31.526Z,1.70
2019-05-13T08:27:02.038Z,1.87
2019-05-13T08:29:32.817Z,1.90
2019-05-13T08:32:02.419Z,1.90
2019-05-13T08:34:32.624Z,1.43
2019-05-13T08:37:02.816Z,1.67
2019-05-13T08:39:35.814Z,1.77
2019-05-13T08:42:12.841Z,1.70
2019-05-13T08:44:32.215Z,1.10
2019-05-13T08:47:03.024Z,1.70
2019-05-13T08:49:32.557Z,1.40
2019-05-13T08:52:01.620Z,1.90
2019-05-13T08:54:32.759Z,1.43
2019-05-13T08:57:02.750Z,1.67
2019-05-13T08:59:31.759Z,1.13
2019-05-13T09:02:03.127Z,1.50
2019-05-13T09:04:31.629Z,1.00
2019-05-13T09:07:02.069Z,1.60
2019-05-13T09:09:31.439Z,1.43
2019-05-13T09:12:02.211Z,1.70
2019-05-13T09:14:32.271Z,1.43
2019-05-13T09:17:01.812Z,1.40
2019-05-13T09:19:32.203Z,1.50
2019-05-13T09:22:02.857Z,1.50
2019-05-13T09:24:36.989Z,1.40
2019-05-13T09:27:01.928Z,1.30
2019-05-13T09:29:32.150Z,1.50
2019-05-13T09:32:03.375Z,1.57
2019-05-13T09:34:32.536Z,1.40
2019-05-13T09:37:02.447Z,1.27
2019-05-13T09:39:32.278Z,1.70
2019-05-13T09:42:02.735Z,1.20
2019-05-13T09:44:32.505Z,1.57
2019-05-13T09:47:02.545Z,1.57
2019-05-13T09:49:32.792Z,1.90
2019-05-13T09:52:01.684Z,1.47
2019-05-13T09:54:32.855Z,1.50
2019-05-13T09:57:01.633Z,1.87
2019-05-13T09:59:31.833Z,1.70
2019-05-13T10:02:02.956Z,2.00
2019-05-13T10:04:31.871Z,1.70
2019-05-13T10:07:02.199Z,1.67
2019-05-13T10:09:32.674Z,1.67
2019-05-13T10:12:03.216Z,1.50
2019-05-13T10:14:32.630Z,1.30
2019-05-13T10:17:05.391Z,1.50
2019-05-13T10:19:32.307Z,1.50
2019-05-13T10:22:00.595Z,1.30
2019-05-13T10:24:28.933Z,1.50
2019-05-13T10:26:57.786Z,1.40
2019-05-13T10:29:26.060Z,1.20
2019-05-13T10:31:54.357Z,1.67
2019-05-13T10:34:22.896Z,1.43
2019-05-13T10:36:51.584Z,1.60
2019-05-13T10:39:22.248Z,1.70
2019-05-13T10:41:52.316Z,1.37
2019-05-13T10:44:19.982Z,1.93
2019-05-13T10:46:48.270Z,1.77
2019-05-13T10:49:16.548Z,1.37
2019-05-13T10:51:45.009Z,1.57
2019-05-13T10:54:13.410Z,1.53
2019-05-13T10:56:42.990Z,1.50
2019-05-13T10:59:12.573Z,1.30
2019-05-13T11:01:42.683Z,1.33
2019-05-13T11:04:13.542Z,1.53
2019-05-13T11:06:41.698Z,1.90
2019-05-13T11:09:13.018Z,1.40
2019-05-13T11:11:41.551Z,1.50
2019-05-13T11:14:12.837Z,1.70
2019-05-13T11:16:42.656Z,1.60
2019-05-13T11:19:11.984Z,1.53
2019-05-13T11:21:43.106Z,1.30
2019-05-13T11:24:12.712Z,1.20
2019-05-13T11:26:41.835Z,1.63
2019-05-13T11:29:12.092Z,1.73
2019-05-13T11:31:42.482Z,1.50
2019-05-13T11:34:10.217Z,1.60
2019-05-13T11:36:38.501Z,1.63
2019-05-13T11:39:08.019Z,1.73
2019-05-13T11:41:36.320Z,1.43
2019-05-13T11:44:14.115Z,1.50
2019-05-13T11:46:35.716Z,1.30
2019-05-13T11:49:03.976Z,1.47
2019-05-13T11:51:32.477Z,1.47
2019-05-13T11:54:02.422Z,1.40
2019-05-13T11:56:33.647Z,1.73
2019-05-13T11:59:07.952Z,1.50
2019-05-13T12:01:36.212Z,1.40
2019-05-13T12:04:04.930Z,1.50
2019-05-13T12:06:33.849Z,1.80
2019-05-13T12:09:03.355Z,1.33
2019-05-13T12:11:33.439Z,1.30
2019-05-13T12:14:01.856Z,1.83
2019-05-13T12:16:30.135Z,1.60
2019-05-13T12:18:58.431Z,1.40
2019-05-13T12:21:26.716Z,1.33
2019-05-13T12:23:55.196Z,1.77
2019-05-13T12:26:24.089Z,1.50
2019-05-13T12:28:53.684Z,1.60
2019-05-13T12:31:22.533Z,1.50
2019-05-13T12:33:52.344Z,1.67
2019-05-13T12:36:23.476Z,1.60
2019-05-13T12:38:53.498Z,1.60
2019-05-13T12:41:23.053Z,1.90
2019-05-13T12:43:54.018Z,1.87
2019-05-13T12:46:24.843Z,1.43
2019-05-13T12:48:51.241Z,1.47
2019-05-13T12:51:20.106Z,1.63
2019-05-13T12:53:52.415Z,1.90
2019-05-13T12:56:23.178Z,1.90
2019-05-13T12:58:52.025Z,1.97
2019-05-13T13:01:24.010Z,1.80
2019-05-13T13:03:50.975Z,1.70
2019-05-13T13:06:31.183Z,2.00
2019-05-13T13:08:50.877Z,2.20
2019-05-13T13:11:19.320Z,1.83
2019-05-13T13:13:59.468Z,1.70
2019-05-13T13:16:18.326Z,1.80
2019-05-13T13:18:46.761Z,2.00
2019-05-13T13:21:15.068Z,2.00
2019-05-13T13:23:43.374Z,2.03
2019-05-13T13:26:15.703Z,1.90
2019-05-13T13:28:43.393Z,2.00
2019-05-13T13:31:12.864Z,1.80
2019-05-13T13:33:44.463Z,1.70
2019-05-13T13:36:15.502Z,2.07
2019-05-13T13:38:43.721Z,2.07
2019-05-13T13:41:22.053Z,2.10
2019-05-13T13:43:42.166Z,1.77
2019-05-13T13:46:25.326Z,1.90
2019-05-13T13:48:43.882Z,2.10
2019-05-13T13:51:14.267Z,1.70
2019-05-13T13:53:44.343Z,2.10
2019-05-13T13:56:14.505Z,2.30
2019-05-13T13:58:43.957Z,2.30
2019-05-13T14:01:19.906Z,2.10
2019-05-13T14:03:45.935Z,1.87
2019-05-13T14:06:13.191Z,2.07
2019-05-13T14:08:41.692Z,2.00
2019-05-13T14:11:11.659Z,1.73
2019-05-13T14:13:42.324Z,1.97
2019-05-13T14:16:25.045Z,2.10
2019-05-13T14:18:41.987Z,2.00
2019-05-13T14:21:10.449Z,2.03
2019-05-13T14:23:39.019Z,2.00
2019-05-13T14:26:07.369Z,2.30
2019-05-13T14:28:36.044Z,1.73
2019-05-13T14:31:04.394Z,1.70
2019-05-13T14:33:35.489Z,2.07
2019-05-13T14:36:02.696Z,1.67
2019-05-13T14:38:32.595Z,1.90
2019-05-13T14:41:03.074Z,1.80
2019-05-13T14:43:32.124Z,1.70
2019-05-13T14:46:02.214Z,2.10
2019-05-13T14:48:32.895Z,2.17
2019-05-13T14:51:01.919Z,1.80
2019-05-13T14:53:32.194Z,2.23
2019-05-13T14:56:03.063Z,1.93
2019-05-13T14:58:32.433Z,2.10
2019-05-13T15:01:12.538Z,1.57
2019-05-13T15:03:32.626Z,1.43
2019-05-13T15:06:01.548Z,1.87
2019-05-13T15:08:32.862Z,1.60
2019-05-13T15:11:01.945Z,2.03
2019-05-13T15:13:32.024Z,2.07
2019-05-13T15:16:00.562Z,1.80
2019-05-13T15:18:28.856Z,1.63
2019-05-13T15:20:57.429Z,1.80
2019-05-13T15:23:25.705Z,1.77
2019-05-13T15:25:54.018Z,2.00
2019-05-13T15:28:22.297Z,1.70
2019-05-13T15:30:51.571Z,1.80
2019-05-13T15:33:21.490Z,1.80
2019-05-13T15:35:51.946Z,1.80
2019-05-13T15:38:20.020Z,1.80
2019-05-13T15:40:48.312Z,1.70
2019-05-13T15:43:16.601Z,2.10
2019-05-13T15:45:44.902Z,1.80
2019-05-13T15:48:13.176Z,1.77
2019-05-13T15:50:42.265Z,1.70
2019-05-13T15:53:12.778Z,1.90
2019-05-13T15:55:40.734Z,2.10
2019-05-13T15:58:11.552Z,1.70
2019-05-13T16:00:41.708Z,1.87
2019-05-13T16:03:09.126Z,1.77
2019-05-13T16:05:37.411Z,1.73
2019-05-13T16:08:05.878Z,1.50
2019-05-13T16:10:34.256Z,1.87
2019-05-13T16:13:02.561Z,1.83
2019-05-13T16:15:32.083Z,1.63
2019-05-13T16:18:02.533Z,1.60
2019-05-13T16:20:32.135Z,1.80
2019-05-13T16:23:02.324Z,1.90
2019-05-13T16:25:31.913Z,1.50
2019-05-13T16:28:01.389Z,1.53
2019-05-13T16:30:32.101Z,1.80
2019-05-13T16:33:02.903Z,1.97
2019-05-13T16:35:31.862Z,2.07
2019-05-13T16:38:01.850Z,1.80
2019-05-13T16:40:58.707Z,1.97
2019-05-13T16:43:01.355Z,1.90
2019-05-13T16:45:31.581Z,1.67
2019-05-13T16:48:03.880Z,1.80
2019-05-13T16:50:31.306Z,1.67
2019-05-13T16:53:01.803Z,1.60
2019-05-13T16:55:29.784Z,1.60
2019-05-13T16:57:58.050Z,1.70
2019-05-13T17:00:26.492Z,1.70
2019-05-13T17:02:54.772Z,2.00
2019-05-13T17:05:23.131Z,1.70
2019-05-13T17:07:51.652Z,1.73
2019-05-13T17:10:22.374Z,2.17
2019-05-13T17:12:52.207Z,1.80
2019-05-13T17:15:21.216Z,1.90
2019-05-13T17:17:51.483Z,2.13
2019-05-13T17:20:21.508Z,2.47
2019-05-13T17:22:51.320Z,1.80
2019-05-13T17:25:19.686Z,2.00
2019-05-13T17:27:47.980Z,1.60
2019-05-13T17:30:16.538Z,1.40
2019-05-13T17:32:44.828Z,1.90
2019-05-13T17:35:13.343Z,1.93
2019-05-13T17:37:42.160Z,1.90
2019-05-13T17:40:11.912Z,1.73
2019-05-13T17:42:41.496Z,1.60
2019-05-13T17:45:11.566Z,2.07
2019-05-13T17:47:41.965Z,1.70
2019-05-13T17:50:11.863Z,1.87
2019-05-13T17:52:40.238Z,1.50
2019-05-13T17:55:08.890Z,1.63
2019-05-13T17:57:37.168Z,1.93
2019-05-13T18:00:07.570Z,1.80
2019-05-13T18:02:35.858Z,1.93
2019-05-13T18:05:05.278Z,1.50
2019-05-13T18:07:33.583Z,2.13
2019-05-13T18:10:01.885Z,1.77
2019-05-13T18:12:30.237Z,1.73
2019-05-13T18:14:58.498Z,1.97
2019-05-13T18:17:26.792Z,1.83
2019-05-13T18:19:55.073Z,1.83
2019-05-13T18:22:23.368Z,1.70
2019-05-13T18:24:51.981Z,1.70
2019-05-13T18:27:22.190Z,1.53
2019-05-13T18:29:51.367Z,1.60
2019-05-13T18:32:21.443Z,2.00
2019-05-13T18:34:49.869Z,1.97
2019-05-13T18:37:18.199Z,1.60
2019-05-13T18:39:46.454Z,1.90
2019-05-13T18:42:14.757Z,1.57
2019-05-13T18:44:43.034Z,1.40
2019-05-13T18:47:12.207Z,1.30
2019-05-13T18:49:42.287Z,1.70
2019-05-13T18:52:11.702Z,1.40
2019-05-13T18:54:42.077Z,1.40
2019-05-13T18:57:12.181Z,1.63
2019-05-13T18:59:41.558Z,2.17
2019-05-13T19:02:12.032Z,1.80
2019-05-13T19:04:41.761Z,2.03
2019-05-13T19:07:10.182Z,1.90
2019-05-13T19:09:38.483Z,1.60
2019-05-13T19:12:06.753Z,1.60
2019-05-13T19:14:35.113Z,2.00
2019-05-13T19:17:03.418Z,1.90
2019-05-13T19:19:31.861Z,1.97
2019-05-13T19:22:02.116Z,1.80
2019-05-13T19:24:31.244Z,1.77
2019-05-13T19:27:01.716Z,1.73
2019-05-13T19:29:31.863Z,2.20
2019-05-13T19:32:01.672Z,2.60
2019-05-13T19:34:32.101Z,2.23
2019-05-13T19:37:02.139Z,2.50
2019-05-13T19:39:36.015Z,1.83
2019-05-13T19:42:04.334Z,2.50
2019-05-13T19:44:32.617Z,2.37
2019-05-13T19:47:02.015Z,2.37
2019-05-13T19:49:36.283Z,2.17
2019-05-13T19:52:02.987Z,2.50
2019-05-13T19:54:31.522Z,2.43
2019-05-13T19:57:01.421Z,2.50
2019-05-13T19:59:32.067Z,2.50
2019-05-13T20:02:01.490Z,2.93
2019-05-13T20:04:31.323Z,2.90
2019-05-13T20:06:59.983Z,2.70
2019-05-13T20:09:28.386Z,2.20
2019-05-13T20:11:56.846Z,2.30
2019-05-13T20:14:25.161Z,2.17
2019-05-13T20:17:12.377Z,2.20
2019-05-13T20:19:47.781Z,1.80
2019-05-13T20:22:12.279Z,2.03
2019-05-13T20:24:41.940Z,2.20
2019-05-13T20:27:11.990Z,2.03
2019-05-13T20:29:41.695Z,2.10
2019-05-13T20:32:11.646Z,1.80
2019-05-13T20:34:40.978Z,2.23
2019-05-13T20:37:09.263Z,2.27
2019-05-13T20:39:37.553Z,2.50
2019-05-13T20:42:05.830Z,2.50
2019-05-13T20:44:34.127Z,2.23
2019-05-13T20:47:02.404Z,2.57
2019-05-13T20:49:31.285Z,2.50
2019-05-13T20:51:59.752Z,2.50
2019-05-13T20:54:28.049Z,2.50
2019-05-13T20:56:56.319Z,2.30
2019-05-13T20:59:24.618Z,2.43
2019-05-13T21:01:52.945Z,2.27
2019-05-13T21:04:21.626Z,2.43
2019-05-13T21:06:51.601Z,2.03
2019-05-13T21:09:20.074Z,2.20
2019-05-13T21:11:48.353Z,2.20
2019-05-13T21:14:16.631Z,2.17
2019-05-13T21:16:44.932Z,1.77
2019-05-13T21:19:13.214Z,1.90
2019-05-13T21:21:41.733Z,2.07
2019-05-13T21:24:10.143Z,2.10
2019-05-13T21:26:38.429Z,2.10
2019-05-13T21:29:06.711Z,1.67
2019-05-13T21:31:34.999Z,2.07
2019-05-13T21:34:03.275Z,1.90
2019-05-13T21:36:31.646Z,2.13
2019-05-13T21:39:01.606Z,2.20
2019-05-13T21:41:31.661Z,1.90
2019-05-13T21:44:01.308Z,1.60
2019-05-13T21:46:29.729Z,2.00
2019-05-13T21:48:58.012Z,1.90
2019-05-13T21:51:26.329Z,1.80
2019-05-13T21:53:54.600Z,1.70
2019-05-13T21:56:23.319Z,1.70
2019-05-13T21:58:52.303Z,1.83
2019-05-13T22:01:23.064Z,1.97
2019-05-13T22:03:51.381Z,1.53
2019-05-13T22:06:21.788Z,1.70
2019-05-13T22:08:51.817Z,1.67
2019-05-13T22:11:22.195Z,1.77
2019-05-13T22:13:51.452Z,1.50
2019-05-13T22:16:21.472Z,1.80
2019-05-13T22:18:52.231Z,2.00
2019-05-13T22:21:19.953Z,1.50
2019-05-13T22:23:48.225Z,1.77
2019-05-13T22:26:16.516Z,1.70
2019-05-13T22:28:44.800Z,1.80
2019-05-13T22:31:13.159Z,1.80
2019-05-13T22:33:41.473Z,1.57
2019-05-13T22:36:11.816Z,1.40
2019-05-13T22:38:42.422Z,1.40
2019-05-13T22:41:11.648Z,1.53
2019-05-13T22:43:52.425Z,1.77
2019-05-13T22:46:13.887Z,1.73
2019-05-13T22:48:41.934Z,1.83
2019-05-13T22:51:11.815Z,1.77
2019-05-13T22:53:42.239Z,1.77
2019-05-13T22:56:10.217Z,1.77
2019-05-13T22:58:38.503Z,1.57
2019-05-13T23:01:06.783Z,1.67
2019-05-13T23:03:35.100Z,1.70
2019-05-13T23:06:03.382Z,1.90
2019-05-13T23:08:32.412Z,1.50
2019-05-13T23:11:01.991Z,1.90
2019-05-13T23:13:31.316Z,1.80
2019-05-13T23:16:02.121Z,1.73
2019-05-13T23:18:31.621Z,2.00
2019-05-13T23:21:02.079Z,1.70
2019-05-13T23:23:29.874Z,1.90
2019-05-13T23:25:58.187Z,1.47
2019-05-13T23:28:26.455Z,1.90
2019-05-13T23:30:54.747Z,1.80
2019-05-13T23:33:23.027Z,1.50
2019-05-13T23:35:51.315Z,1.60
2019-05-13T23:38:21.421Z,2.23
2019-05-13T23:40:51.556Z,1.50
2019-05-13T23:43:21.743Z,1.53
2019-05-13T23:45:51.099Z,1.80
2019-05-13T23:48:21.661Z,1.87
2019-05-13T23:50:51.868Z,1.30
2019-05-13T23:53:21.825Z,1.40
2019-05-13T23:55:51.946Z,1.63
2019-05-13T23:58:21.659Z,1.57
